sensor_id;sensor_type;location;lat;lon;timestamp;pressure;altitude;pressure_sealevel;temperature
74043;BMP280;62384;53.600;10.040;2022-10-16T00:00:37;100580.03;;;15.40
74043;BMP280;62384;53.600;10.040;2022-10-16T00:03:04;100593.53;;;15.40
74043;BMP280;62384;53.600;10.040;2022-10-16T00:05:29;100599.72;;;15.41
74043;BMP280;62384;53.600;10.040;2022-10-16T00:07:55;100588.16;;;15.29
74043;BMP280;62384;53.600;10.040;2022-10-16T00:10:20;100599.75;;;15.30
74043;BMP280;62384;53.600;10.040;2022-10-16T00:12:46;100605.97;;;15.27
74043;BMP280;62384;53.600;10.040;2022-10-16T00:15:11;100602.09;;;15.24
74043;BMP280;62384;53.600;10.040;2022-10-16T00:17:37;100611.72;;;15.25
74043;BMP280;62384;53.600;10.040;2022-10-16T00:20:02;100614.44;;;15.25
74043;BMP280;62384;53.600;10.040;2022-10-16T00:22:27;100605.94;;;15.13
74043;BMP280;62384;53.600;10.040;2022-10-16T00:24:53;100628.34;;;15.24
74043;BMP280;62384;53.600;10.040;2022-10-16T00:27:18;100640.34;;;15.26
74043;BMP280;62384;53.600;10.040;2022-10-16T00:29:43;100635.69;;;15.23
74043;BMP280;62384;53.600;10.040;2022-10-16T00:32:09;100641.50;;;15.32
74043;BMP280;62384;53.600;10.040;2022-10-16T00:34:34;100635.72;;;15.27
74043;BMP280;62384;53.600;10.040;2022-10-16T00:37:02;100675.09;;;15.42
74043;BMP280;62384;53.600;10.040;2022-10-16T00:39:27;100676.63;;;15.40
74043;BMP280;62384;53.600;10.040;2022-10-16T00:41:53;100693.28;;;15.31
74043;BMP280;62384;53.600;10.040;2022-10-16T00:44:44;100697.91;;;15.41
74043;BMP280;62384;53.600;10.040;2022-10-16T00:49:51;100697.50;;;15.36
74043;BMP280;62384;53.600;10.040;2022-10-16T00:52:25;100716.88;;;15.45
74043;BMP280;62384;53.600;10.040;2022-10-16T00:54:52;100721.50;;;15.44
74043;BMP280;62384;53.600;10.040;2022-10-16T00:57:22;100723.81;;;15.49
74043;BMP280;62384;53.600;10.040;2022-10-16T00:59:48;100697.16;;;15.26
74043;BMP280;62384;53.600;10.040;2022-10-16T01:02:14;100731.56;;;15.44
74043;BMP280;62384;53.600;10.040;2022-10-16T01:04:43;100731.91;;;15.46
74043;BMP280;62384;53.600;10.040;2022-10-16T01:13:11;100740.81;;;15.39
74043;BMP280;62384;53.600;10.040;2022-10-16T01:21:04;100738.84;;;15.29
74043;BMP280;62384;53.600;10.040;2022-10-16T01:23:53;100762.47;;;15.43
74043;BMP280;62384;53.600;10.040;2022-10-16T01:29:20;100762.44;;;15.32
74043;BMP280;62384;53.600;10.040;2022-10-16T01:31:50;100762.81;;;15.23
74043;BMP280;62384;53.600;10.040;2022-10-16T01:34:24;100756.63;;;15.16
74043;BMP280;62384;53.600;10.040;2022-10-16T01:36:56;100751.97;;;15.06
74043;BMP280;62384;53.600;10.040;2022-10-16T01:39:31;100753.94;;;15.16
74043;BMP280;62384;53.600;10.040;2022-10-16T01:42:08;100753.91;;;15.12
74043;BMP280;62384;53.600;10.040;2022-10-16T01:44:36;100755.09;;;15.11
74043;BMP280;62384;53.600;10.040;2022-10-16T01:47:02;100752.38;;;15.04
74043;BMP280;62384;53.600;10.040;2022-10-16T01:49:32;100754.31;;;15.04
74043;BMP280;62384;53.600;10.040;2022-10-16T01:52:00;100752.38;;;15.04
74043;BMP280;62384;53.600;10.040;2022-10-16T01:54:28;100755.84;;;15.05
74043;BMP280;62384;53.600;10.040;2022-10-16T01:57:00;100756.59;;;15.09
74043;BMP280;62384;53.600;10.040;2022-10-16T01:59:35;100747.31;;;15.03
74043;BMP280;62384;53.600;10.040;2022-10-16T02:02:09;100751.56;;;15.00
74043;BMP280;62384;53.600;10.040;2022-10-16T02:04:39;100754.66;;;14.99
74043;BMP280;62384;53.600;10.040;2022-10-16T02:07:13;100759.31;;;15.02
74043;BMP280;62384;53.600;10.040;2022-10-16T02:09:41;100753.88;;;14.95
74043;BMP280;62384;53.600;10.040;2022-10-16T02:12:19;100756.63;;;14.98
74043;BMP280;62384;53.600;10.040;2022-10-16T02:14:47;100754.28;;;14.93
74043;BMP280;62384;53.600;10.040;2022-10-16T02:17:15;100755.41;;;14.96
74043;BMP280;62384;53.600;10.040;2022-10-16T02:19:41;100756.94;;;14.90
74043;BMP280;62384;53.600;10.040;2022-10-16T02:22:09;100752.72;;;14.96
74043;BMP280;62384;53.600;10.040;2022-10-16T02:24:42;100756.59;;;14.95
74043;BMP280;62384;53.600;10.040;2022-10-16T02:27:17;100765.09;;;14.93
74043;BMP280;62384;53.600;10.040;2022-10-16T02:29:50;100754.97;;;14.80
74043;BMP280;62384;53.600;10.040;2022-10-16T02:32:21;100749.56;;;14.76
74043;BMP280;62384;53.600;10.040;2022-10-16T02:34:49;100746.09;;;14.76
74043;BMP280;62384;53.600;10.040;2022-10-16T02:37:16;100764.63;;;14.74
74043;BMP280;62384;53.600;10.040;2022-10-16T02:39:42;100760.00;;;14.74
74043;BMP280;62384;53.600;10.040;2022-10-16T02:42:14;100753.81;;;14.74
74043;BMP280;62384;53.600;10.040;2022-10-16T02:44:41;100754.94;;;14.73
74043;BMP280;62384;53.600;10.040;2022-10-16T02:47:06;100749.53;;;14.73
74043;BMP280;62384;53.600;10.040;2022-10-16T02:49:32;100754.56;;;14.67
74043;BMP280;62384;53.600;10.040;2022-10-16T02:51:57;100748.78;;;14.65
74043;BMP280;62384;53.600;10.040;2022-10-16T02:54:22;100753.38;;;14.61
74043;BMP280;62384;53.600;10.040;2022-10-16T02:56:49;100753.41;;;14.65
74043;BMP280;62384;53.600;10.040;2022-10-16T02:59:14;100759.13;;;14.56
74043;BMP280;62384;53.600;10.040;2022-10-16T03:01:39;100756.06;;;14.58
74043;BMP280;62384;53.600;10.040;2022-10-16T03:04:05;100746.00;;;14.55
74043;BMP280;62384;53.600;10.040;2022-10-16T03:06:30;100752.94;;;14.48
74043;BMP280;62384;53.600;10.040;2022-10-16T03:08:56;100743.66;;;14.49
74043;BMP280;62384;53.600;10.040;2022-10-16T03:11:21;100759.56;;;14.58
74043;BMP280;62384;53.600;10.040;2022-10-16T03:13:50;100740.59;;;14.55
74043;BMP280;62384;53.600;10.040;2022-10-16T03:16:16;100736.34;;;14.46
74043;BMP280;62384;53.600;10.040;2022-10-16T03:18:41;100742.91;;;14.49
74043;BMP280;62384;53.600;10.040;2022-10-16T03:21:11;100725.91;;;14.45
74043;BMP280;62384;53.600;10.040;2022-10-16T03:23:36;100735.56;;;14.46
74043;BMP280;62384;53.600;10.040;2022-10-16T03:26:02;100741.69;;;14.39
74043;BMP280;62384;53.600;10.040;2022-10-16T03:28:27;100732.41;;;14.30
74043;BMP280;62384;53.600;10.040;2022-10-16T03:30:52;100735.13;;;14.37
74043;BMP280;62384;53.600;10.040;2022-10-16T03:33:17;100737.41;;;14.28
74043;BMP280;62384;53.600;10.040;2022-10-16T03:35:50;100735.50;;;14.32
74043;BMP280;62384;53.600;10.040;2022-10-16T03:38:16;100738.91;;;14.22
74043;BMP280;62384;53.600;10.040;2022-10-16T03:40:41;100729.25;;;14.17
74043;BMP280;62384;53.600;10.040;2022-10-16T03:43:06;100733.03;;;14.13
74043;BMP280;62384;53.600;10.040;2022-10-16T03:45:32;100737.34;;;14.17
74043;BMP280;62384;53.600;10.040;2022-10-16T03:47:57;100728.84;;;14.15
74043;BMP280;62384;53.600;10.040;2022-10-16T03:50:22;100740.81;;;14.18
74043;BMP280;62384;53.600;10.040;2022-10-16T03:52:47;100747.38;;;14.17
74043;BMP280;62384;53.600;10.040;2022-10-16T03:55:13;100740.44;;;14.19
74043;BMP280;62384;53.600;10.040;2022-10-16T03:57:38;100731.94;;;14.17
74043;BMP280;62384;53.600;10.040;2022-10-16T04:00:04;100736.56;;;14.17
74043;BMP280;62384;53.600;10.040;2022-10-16T04:02:29;100745.13;;;14.26
74043;BMP280;62384;53.600;10.040;2022-10-16T04:04:55;100742.28;;;14.08
74043;BMP280;62384;53.600;10.040;2022-10-16T04:07:20;100742.34;;;14.12
74043;BMP280;62384;53.600;10.040;2022-10-16T04:09:45;100757.00;;;14.14
74043;BMP280;62384;53.600;10.040;2022-10-16T04:12:10;100767.41;;;14.12
74043;BMP280;62384;53.600;10.040;2022-10-16T04:14:39;100777.47;;;14.15
74043;BMP280;62384;53.600;10.040;2022-10-16T04:17:04;100777.44;;;14.12
74043;BMP280;62384;53.600;10.040;2022-10-16T04:19:32;100782.78;;;14.08
74043;BMP280;62384;53.600;10.040;2022-10-16T04:21:58;100778.94;;;14.06
74043;BMP280;62384;53.600;10.040;2022-10-16T04:24:24;100780.44;;;14.07
74043;BMP280;62384;53.600;10.040;2022-10-16T04:26:49;100777.34;;;14.01
74043;BMP280;62384;53.600;10.040;2022-10-16T04:29:14;100785.09;;;14.06
74043;BMP280;62384;53.600;10.040;2022-10-16T04:31:40;100790.50;;;14.10
74043;BMP280;62384;53.600;10.040;2022-10-16T04:34:05;100791.66;;;14.05
74043;BMP280;62384;53.600;10.040;2022-10-16T04:36:30;100780.03;;;14.01
74043;BMP280;62384;53.600;10.040;2022-10-16T04:38:56;100785.41;;;13.98
74043;BMP280;62384;53.600;10.040;2022-10-16T04:41:21;100793.66;;;14.15
74043;BMP280;62384;53.600;10.040;2022-10-16T04:43:46;100808.22;;;14.07
74043;BMP280;62384;53.600;10.040;2022-10-16T04:46:12;100819.88;;;14.15
74043;BMP280;62384;53.600;10.040;2022-10-16T04:48:37;100820.22;;;14.13
74043;BMP280;62384;53.600;10.040;2022-10-16T04:51:03;100812.91;;;14.14
74043;BMP280;62384;53.600;10.040;2022-10-16T04:53:28;100807.44;;;14.07
74043;BMP280;62384;53.600;10.040;2022-10-16T04:55:54;100818.66;;;14.05
74043;BMP280;62384;53.600;10.040;2022-10-16T04:58:20;100813.69;;;14.14
74043;BMP280;62384;53.600;10.040;2022-10-16T05:00:46;100813.69;;;14.11
74043;BMP280;62384;53.600;10.040;2022-10-16T05:03:12;100809.06;;;14.15
74043;BMP280;62384;53.600;10.040;2022-10-16T05:05:42;100774.88;;;13.79
74043;BMP280;62384;53.600;10.040;2022-10-16T05:08:07;100804.72;;;14.00
74043;BMP280;62384;53.600;10.040;2022-10-16T05:10:32;100821.78;;;14.11
74043;BMP280;62384;53.600;10.040;2022-10-16T05:12:58;100814.41;;;14.08
74043;BMP280;62384;53.600;10.040;2022-10-16T05:15:23;100820.22;;;14.10
74043;BMP280;62384;53.600;10.040;2022-10-16T05:17:52;100827.53;;;14.06
74043;BMP280;62384;53.600;10.040;2022-10-16T05:20:17;100814.34;;;14.01
74043;BMP280;62384;53.600;10.040;2022-10-16T05:22:43;100822.88;;;13.99
74043;BMP280;62384;53.600;10.040;2022-10-16T05:25:08;100823.63;;;14.00
74043;BMP280;62384;53.600;10.040;2022-10-16T05:27:33;100823.63;;;14.00
74043;BMP280;62384;53.600;10.040;2022-10-16T05:29:58;100819.72;;;13.94
74043;BMP280;62384;53.600;10.040;2022-10-16T05:32:24;100815.50;;;14.00
74043;BMP280;62384;53.600;10.040;2022-10-16T05:34:50;100831.72;;;14.03
74043;BMP280;62384;53.600;10.040;2022-10-16T05:37:16;100827.47;;;13.99
74043;BMP280;62384;53.600;10.040;2022-10-16T05:39:41;100825.19;;;14.04
74043;BMP280;62384;53.600;10.040;2022-10-16T05:42:06;100824.44;;;14.07
74043;BMP280;62384;53.600;10.040;2022-10-16T05:44:32;100829.84;;;14.07
74043;BMP280;62384;53.600;10.040;2022-10-16T05:46:57;100821.31;;;14.02
74043;BMP280;62384;53.600;10.040;2022-10-16T05:49:23;100808.59;;;14.02
74043;BMP280;62384;53.600;10.040;2022-10-16T05:51:48;100819.50;;;14.16
74043;BMP280;62384;53.600;10.040;2022-10-16T05:54:13;100829.91;;;14.14
74043;BMP280;62384;53.600;10.040;2022-10-16T05:56:39;100823.72;;;14.14
74043;BMP280;62384;53.600;10.040;2022-10-16T05:59:04;100830.66;;;14.11
74043;BMP280;62384;53.600;10.040;2022-10-16T06:01:32;100841.88;;;14.17
74043;BMP280;62384;53.600;10.040;2022-10-16T06:03:57;100837.66;;;14.19
74043;BMP280;62384;53.600;10.040;2022-10-16T06:06:24;100834.63;;;14.28
74043;BMP280;62384;53.600;10.040;2022-10-16T06:08:54;100836.56;;;14.31
74043;BMP280;62384;53.600;10.040;2022-10-16T06:11:33;100841.22;;;14.34
74043;BMP280;62384;53.600;10.040;2022-10-16T06:14:00;100839.66;;;14.33
74043;BMP280;62384;53.600;10.040;2022-10-16T06:16:28;100843.94;;;14.34
74043;BMP280;62384;53.600;10.040;2022-10-16T06:18:55;100834.63;;;14.28
74043;BMP280;62384;53.600;10.040;2022-10-16T06:21:26;100839.31;;;14.34
74043;BMP280;62384;53.600;10.040;2022-10-16T06:23:53;100833.88;;;14.31
74043;BMP280;62384;53.600;10.040;2022-10-16T06:26:20;100842.78;;;14.35
74043;BMP280;62384;53.600;10.040;2022-10-16T06:28:46;100852.78;;;14.31
74043;BMP280;62384;53.600;10.040;2022-10-16T06:31:12;100853.94;;;14.30
74043;BMP280;62384;53.600;10.040;2022-10-16T06:33:41;100846.13;;;14.18
74043;BMP280;62384;53.600;10.040;2022-10-16T06:36:14;100832.22;;;14.12
74043;BMP280;62384;53.600;10.040;2022-10-16T06:38:41;100843.03;;;14.16
74043;BMP280;62384;53.600;10.040;2022-10-16T06:41:15;100848.78;;;14.11
74043;BMP280;62384;53.600;10.040;2022-10-16T06:43:41;100847.16;;;13.99
74043;BMP280;62384;53.600;10.040;2022-10-16T06:46:09;100834.41;;;14.00
74043;BMP280;62384;53.600;10.040;2022-10-16T06:48:35;100842.97;;;14.05
74043;BMP280;62384;53.600;10.040;2022-10-16T06:51:15;100846.03;;;14.07
74043;BMP280;62384;53.600;10.040;2022-10-16T06:53:43;100852.97;;;14.05
74043;BMP280;62384;53.600;10.040;2022-10-16T06:56:10;100869.25;;;14.12
74043;BMP280;62384;53.600;10.040;2022-10-16T06:58:36;100873.53;;;14.20
74043;BMP280;62384;53.600;10.040;2022-10-16T07:01:01;100868.88;;;14.17
74043;BMP280;62384;53.600;10.040;2022-10-16T07:03:26;100870.06;;;14.23
74043;BMP280;62384;53.600;10.040;2022-10-16T07:05:52;100871.66;;;14.27
74043;BMP280;62384;53.600;10.040;2022-10-16T07:08:20;100874.06;;;14.39
74043;BMP280;62384;53.600;10.040;2022-10-16T07:10:46;100890.50;;;14.75
74043;BMP280;62384;53.600;10.040;2022-10-16T07:13:14;100894.66;;;14.58
74043;BMP280;62384;53.600;10.040;2022-10-16T07:15:40;100898.97;;;14.73
74043;BMP280;62384;53.600;10.040;2022-10-16T07:18:06;100905.63;;;14.83
74043;BMP280;62384;53.600;10.040;2022-10-16T07:20:31;100908.31;;;14.86
74043;BMP280;62384;53.600;10.040;2022-10-16T07:22:57;100909.16;;;14.97
74043;BMP280;62384;53.600;10.040;2022-10-16T07:25:24;100917.63;;;14.96
74043;BMP280;62384;53.600;10.040;2022-10-16T07:27:52;100910.31;;;14.96
74043;BMP280;62384;53.600;10.040;2022-10-16T07:30:17;100921.13;;;14.96
74043;BMP280;62384;53.600;10.040;2022-10-16T07:32:43;100923.47;;;14.98
74043;BMP280;62384;53.600;10.040;2022-10-16T07:35:08;100911.41;;;14.85
74043;BMP280;62384;53.600;10.040;2022-10-16T07:37:33;100910.69;;;14.95
74043;BMP280;62384;53.600;10.040;2022-10-16T07:39:59;100927.66;;;14.95
74043;BMP280;62384;53.600;10.040;2022-10-16T07:42:24;100926.16;;;14.94
74043;BMP280;62384;53.600;10.040;2022-10-16T07:44:49;100930.41;;;14.99
74043;BMP280;62384;53.600;10.040;2022-10-16T07:47:14;100937.03;;;15.08
74043;BMP280;62384;53.600;10.040;2022-10-16T07:49:40;100928.59;;;15.20
74043;BMP280;62384;53.600;10.040;2022-10-16T07:52:06;100952.66;;;15.47
74043;BMP280;62384;53.600;10.040;2022-10-16T07:54:31;100956.19;;;15.61
74043;BMP280;62384;53.600;10.040;2022-10-16T07:57:01;100968.97;;;15.68
74043;BMP280;62384;53.600;10.040;2022-10-16T07:59:27;100973.63;;;15.71
74043;BMP280;62384;53.600;10.040;2022-10-16T08:01:52;100972.47;;;15.72
74043;BMP280;62384;53.600;10.040;2022-10-16T08:04:21;100984.47;;;15.78
74043;BMP280;62384;53.600;10.040;2022-10-16T08:06:46;100982.16;;;15.76
74043;BMP280;62384;53.600;10.040;2022-10-16T08:09:12;100982.16;;;15.76
74043;BMP280;62384;53.600;10.040;2022-10-16T08:11:38;100990.22;;;15.73
74043;BMP280;62384;53.600;10.040;2022-10-16T08:14:04;100999.13;;;15.70
74043;BMP280;62384;53.600;10.040;2022-10-16T08:16:30;100992.16;;;15.72
74043;BMP280;62384;53.600;10.040;2022-10-16T08:18:58;100991.81;;;15.70
74043;BMP280;62384;53.600;10.040;2022-10-16T08:21:23;100986.75;;;15.72
74043;BMP280;62384;53.600;10.040;2022-10-16T08:23:49;100999.56;;;15.89
74043;BMP280;62384;53.600;10.040;2022-10-16T08:26:15;100998.03;;;15.92
74043;BMP280;62384;53.600;10.040;2022-10-16T08:28:40;101009.28;;;16.01
74043;BMP280;62384;53.600;10.040;2022-10-16T08:31:11;101010.06;;;16.26
74043;BMP280;62384;53.600;10.040;2022-10-16T08:33:38;101012.41;;;16.35
74043;BMP280;62384;53.600;10.040;2022-10-16T08:36:05;101029.44;;;16.70
74043;BMP280;62384;53.600;10.040;2022-10-16T08:38:33;101049.53;;;17.12
74043;BMP280;62384;53.600;10.040;2022-10-16T08:47:02;101035.63;;;16.74
74043;BMP280;62384;53.600;10.040;2022-10-16T08:49:31;101051.13;;;17.02
74043;BMP280;62384;53.600;10.040;2022-10-16T08:51:57;101060.69;;;17.42
74043;BMP280;62384;53.600;10.040;2022-10-16T08:54:29;101071.19;;;17.33
74043;BMP280;62384;53.600;10.040;2022-10-16T08:57:04;101088.16;;;17.65
74043;BMP280;62384;53.600;10.040;2022-10-16T08:59:33;101085.50;;;17.37
74043;BMP280;62384;53.600;10.040;2022-10-16T09:01:59;101096.78;;;17.35
74043;BMP280;62384;53.600;10.040;2022-10-16T09:13:30;101116.47;;;17.64
74043;BMP280;62384;53.600;10.040;2022-10-16T09:16:19;101124.44;;;17.99
74043;BMP280;62384;53.600;10.040;2022-10-16T09:21:20;101134.34;;;18.37
74043;BMP280;62384;53.600;10.040;2022-10-16T09:23:47;101157.78;;;19.16
74043;BMP280;62384;53.600;10.040;2022-10-16T09:26:13;101198.75;;;20.37
74043;BMP280;62384;53.600;10.040;2022-10-16T09:28:40;101228.41;;;22.25
74043;BMP280;62384;53.600;10.040;2022-10-16T09:31:05;101239.75;;;22.08
74043;BMP280;62384;53.600;10.040;2022-10-16T09:33:40;101225.94;;;22.31
74043;BMP280;62384;53.600;10.040;2022-10-16T09:36:06;101233.16;;;25.06
74043;BMP280;62384;53.600;10.040;2022-10-16T09:38:35;101239.28;;;22.93
74043;BMP280;62384;53.600;10.040;2022-10-16T09:41:21;101230.88;;;23.70
74043;BMP280;62384;53.600;10.040;2022-10-16T09:44:01;101232.34;;;21.69
74043;BMP280;62384;53.600;10.040;2022-10-16T09:46:28;101230.47;;;22.37
74043;BMP280;62384;53.600;10.040;2022-10-16T09:48:56;101224.56;;;22.87
74043;BMP280;62384;53.600;10.040;2022-10-16T09:51:26;101230.06;;;24.10
74043;BMP280;62384;53.600;10.040;2022-10-16T09:56:34;101244.09;;;25.71
74043;BMP280;62384;53.600;10.040;2022-10-16T10:04:07;101261.72;;;26.89
74043;BMP280;62384;53.600;10.040;2022-10-16T10:06:40;101278.72;;;26.78
74043;BMP280;62384;53.600;10.040;2022-10-16T10:11:50;101279.81;;;24.25
74043;BMP280;62384;53.600;10.040;2022-10-16T10:16:43;101280.75;;;25.89
74043;BMP280;62384;53.600;10.040;2022-10-16T10:19:21;101277.44;;;25.73
74043;BMP280;62384;53.600;10.040;2022-10-16T10:21:46;101287.09;;;24.91
74043;BMP280;62384;53.600;10.040;2022-10-16T10:24:19;101288.84;;;24.85
74043;BMP280;62384;53.600;10.040;2022-10-16T10:26:50;101282.34;;;26.08
74043;BMP280;62384;53.600;10.040;2022-10-16T10:29:35;101278.44;;;25.57
74043;BMP280;62384;53.600;10.040;2022-10-16T10:32:46;101290.53;;;24.70
74043;BMP280;62384;53.600;10.040;2022-10-16T10:38:25;101293.97;;;25.29
74043;BMP280;62384;53.600;10.040;2022-10-16T10:41:11;101294.16;;;24.67
74043;BMP280;62384;53.600;10.040;2022-10-16T10:43:55;101279.19;;;23.80
74043;BMP280;62384;53.600;10.040;2022-10-16T10:49:45;101283.66;;;22.01
74043;BMP280;62384;53.600;10.040;2022-10-16T10:55:45;101289.38;;;20.18
74043;BMP280;62384;53.600;10.040;2022-10-16T10:58:48;101296.28;;;20.29
74043;BMP280;62384;53.600;10.040;2022-10-16T11:01:39;101289.00;;;20.19
74043;BMP280;62384;53.600;10.040;2022-10-16T11:07:30;101291.97;;;19.98
74043;BMP280;62384;53.600;10.040;2022-10-16T11:10:18;101286.94;;;19.59
74043;BMP280;62384;53.600;10.040;2022-10-16T11:12:47;101259.59;;;19.70
74043;BMP280;62384;53.600;10.040;2022-10-16T11:15:34;101299.81;;;19.93
74043;BMP280;62384;53.600;10.040;2022-10-16T11:18:08;101302.81;;;20.02
74043;BMP280;62384;53.600;10.040;2022-10-16T11:20:43;101295.47;;;19.99
74043;BMP280;62384;53.600;10.040;2022-10-16T11:23:14;101299.91;;;20.19
74043;BMP280;62384;53.600;10.040;2022-10-16T11:25:43;101313.66;;;19.71
74043;BMP280;62384;53.600;10.040;2022-10-16T11:28:44;101308.66;;;19.70
74043;BMP280;62384;53.600;10.040;2022-10-16T11:31:27;101319.34;;;19.88
74043;BMP280;62384;53.600;10.040;2022-10-16T11:34:08;101323.22;;;19.90
74043;BMP280;62384;53.600;10.040;2022-10-16T11:44:19;101335.56;;;19.10
74043;BMP280;62384;53.600;10.040;2022-10-16T11:46:58;101341.13;;;18.89
74043;BMP280;62384;53.600;10.040;2022-10-16T11:49:30;101339.97;;;18.90
74043;BMP280;62384;53.600;10.040;2022-10-16T11:54:54;101349.38;;;18.74
74043;BMP280;62384;53.600;10.040;2022-10-16T11:57:24;101340.84;;;18.72
74043;BMP280;62384;53.600;10.040;2022-10-16T11:59:58;101360.28;;;18.71
74043;BMP280;62384;53.600;10.040;2022-10-16T12:03:12;101358.38;;;18.68
74043;BMP280;62384;53.600;10.040;2022-10-16T12:06:11;101351.00;;;18.61
74043;BMP280;62384;53.600;10.040;2022-10-16T12:08:39;101358.41;;;18.54
74043;BMP280;62384;53.600;10.040;2022-10-16T12:11:32;101364.53;;;18.75
74043;BMP280;62384;53.600;10.040;2022-10-16T12:16:57;101380.63;;;18.38
74043;BMP280;62384;53.600;10.040;2022-10-16T12:19:26;101380.63;;;18.38
74043;BMP280;62384;53.600;10.040;2022-10-16T12:22:18;101382.47;;;18.59
74043;BMP280;62384;53.600;10.040;2022-10-16T12:24:43;101387.09;;;18.65
74043;BMP280;62384;53.600;10.040;2022-10-16T12:27:44;101392.47;;;18.90
74043;BMP280;62384;53.600;10.040;2022-10-16T12:30:22;101393.38;;;19.31
74043;BMP280;62384;53.600;10.040;2022-10-16T12:33:19;101397.63;;;19.36
74043;BMP280;62384;53.600;10.040;2022-10-16T12:35:46;101391.47;;;19.76
74043;BMP280;62384;53.600;10.040;2022-10-16T12:38:20;101404.84;;;20.01
74043;BMP280;62384;53.600;10.040;2022-10-16T12:40:56;101402.59;;;19.48
74043;BMP280;62384;53.600;10.040;2022-10-16T12:46:20;101398.84;;;19.83
74043;BMP280;62384;53.600;10.040;2022-10-16T12:48:47;101421.56;;;19.62
74043;BMP280;62384;53.600;10.040;2022-10-16T12:54:28;101410.44;;;19.42
74043;BMP280;62384;53.600;10.040;2022-10-16T13:08:37;101429.59;;;19.25
74043;BMP280;62384;53.600;10.040;2022-10-16T13:17:20;101436.22;;;19.24
74043;BMP280;62384;53.600;10.040;2022-10-16T13:22:52;101456.94;;;19.07
74043;BMP280;62384;53.600;10.040;2022-10-16T13:28:40;101461.97;;;19.05
74043;BMP280;62384;53.600;10.040;2022-10-16T13:31:15;101474.44;;;19.03
74043;BMP280;62384;53.600;10.040;2022-10-16T13:34:05;101476.41;;;18.99
74043;BMP280;62384;53.600;10.040;2022-10-16T13:36:45;101474.47;;;18.96
74043;BMP280;62384;53.600;10.040;2022-10-16T13:39:12;101481.84;;;18.95
74043;BMP280;62384;53.600;10.040;2022-10-16T13:41:37;101480.75;;;18.82
74043;BMP280;62384;53.600;10.040;2022-10-16T13:44:03;101466.41;;;18.57
74043;BMP280;62384;53.600;10.040;2022-10-16T13:46:31;101485.06;;;18.62
74043;BMP280;62384;53.600;10.040;2022-10-16T13:49:19;101493.63;;;18.57
74043;BMP280;62384;53.600;10.040;2022-10-16T13:52:21;101503.72;;;18.63
74043;BMP280;62384;53.600;10.040;2022-10-16T13:54:49;101503.34;;;18.47
74043;BMP280;62384;53.600;10.040;2022-10-16T13:57:15;101500.66;;;18.40
74043;BMP280;62384;53.600;10.040;2022-10-16T13:59:41;101503.34;;;18.33
74043;BMP280;62384;53.600;10.040;2022-10-16T14:04:47;101518.88;;;18.47
74043;BMP280;62384;53.600;10.040;2022-10-16T14:07:22;101514.66;;;18.35
74043;BMP280;62384;53.600;10.040;2022-10-16T14:09:50;101522.00;;;18.42
74043;BMP280;62384;53.600;10.040;2022-10-16T14:12:16;101518.91;;;18.43
74043;BMP280;62384;53.600;10.040;2022-10-16T14:14:50;101525.09;;;18.37
74043;BMP280;62384;53.600;10.040;2022-10-16T14:17:33;101533.63;;;18.46
74043;BMP280;62384;53.600;10.040;2022-10-16T14:20:03;101526.63;;;18.52
74043;BMP280;62384;53.600;10.040;2022-10-16T14:22:43;101528.19;;;18.46
74043;BMP280;62384;53.600;10.040;2022-10-16T14:28:01;101541.03;;;18.42
74043;BMP280;62384;53.600;10.040;2022-10-16T14:30:28;101549.94;;;18.46
74043;BMP280;62384;53.600;10.040;2022-10-16T14:32:59;101549.59;;;18.58
74043;BMP280;62384;53.600;10.040;2022-10-16T14:35:34;101553.47;;;18.60
74043;BMP280;62384;53.600;10.040;2022-10-16T14:38:14;101556.97;;;18.57
74043;BMP280;62384;53.600;10.040;2022-10-16T14:40:47;101563.56;;;18.53
74043;BMP280;62384;53.600;10.040;2022-10-16T14:43:35;101567.06;;;18.43
74043;BMP280;62384;53.600;10.040;2022-10-16T14:46:03;101570.19;;;18.38
74043;BMP280;62384;53.600;10.040;2022-10-16T14:48:32;101553.88;;;18.38
74043;BMP280;62384;53.600;10.040;2022-10-16T14:50:57;101572.50;;;18.36
74043;BMP280;62384;53.600;10.040;2022-10-16T14:53:23;101574.44;;;18.28
74043;BMP280;62384;53.600;10.040;2022-10-16T14:55:51;101579.88;;;18.21
74043;BMP280;62384;53.600;10.040;2022-10-16T14:58:19;101577.94;;;18.25
74043;BMP280;62384;53.600;10.040;2022-10-16T15:00:45;101577.97;;;18.22
74043;BMP280;62384;53.600;10.040;2022-10-16T15:03:11;101580.63;;;18.29
74043;BMP280;62384;53.600;10.040;2022-10-16T15:05:37;101589.59;;;18.29
74043;BMP280;62384;53.600;10.040;2022-10-16T15:08:03;101586.47;;;18.24
74043;BMP280;62384;53.600;10.040;2022-10-16T15:10:30;101585.31;;;18.18
74043;BMP280;62384;53.600;10.040;2022-10-16T15:13:20;101585.72;;;18.27
74043;BMP280;62384;53.600;10.040;2022-10-16T15:15:46;101589.94;;;18.14
74043;BMP280;62384;53.600;10.040;2022-10-16T15:18:12;101596.16;;;18.07
74043;BMP280;62384;53.600;10.040;2022-10-16T15:20:40;101593.06;;;18.05
74043;BMP280;62384;53.600;10.040;2022-10-16T15:23:12;101591.47;;;18.04
74043;BMP280;62384;53.600;10.040;2022-10-16T15:25:47;101605.44;;;17.99
74043;BMP280;62384;53.600;10.040;2022-10-16T15:28:28;101604.66;;;17.88
74043;BMP280;62384;53.600;10.040;2022-10-16T15:30:55;101606.19;;;17.85
74043;BMP280;62384;53.600;10.040;2022-10-16T15:33:24;101602.28;;;17.83
74043;BMP280;62384;53.600;10.040;2022-10-16T15:35:52;101604.25;;;17.82
74043;BMP280;62384;53.600;10.040;2022-10-16T15:38:20;101614.69;;;17.77
74043;BMP280;62384;53.600;10.040;2022-10-16T15:40:47;101607.31;;;17.74
74043;BMP280;62384;53.600;10.040;2022-10-16T15:43:13;101595.63;;;17.56
74043;BMP280;62384;53.600;10.040;2022-10-16T15:45:39;101609.97;;;17.60
74043;BMP280;62384;53.600;10.040;2022-10-16T15:48:11;101623.56;;;17.60